Time;durP1;ratioP1;P1;durP2;ratioP2;P2;SDS_P1;SDS_P2;PMS_P1;PMS_P2;Temp;Humidity;BMP_temperature;BMP_pressure;BME280_temperature;BME280_humidity;BME280_pressure;Samples;Min_cycle;Max_cycle;Signal;HPM_P1;HPM_P2
2022/11/14 00:01:11;;;;;;;;;;;21.40;60.90;;;;;;1597328;72;661;-56
2022/11/14 00:03:13;;;;;;;;;;;21.40;60.90;;;;;;1600437;72;687;-58
2022/11/14 00:05:15;;;;;;;;;;;21.40;61.00;;;;;;1602530;72;646;-57
2022/11/14 00:07:17;;;;;;;;;;;21.40;61.00;;;;;;1606025;72;636;-57
2022/11/14 00:09:19;;;;;;;;;;;21.40;61.00;;;;;;1605840;72;1178;-58
2022/11/14 00:11:20;;;;;;;;;;;21.40;61.00;;;;;;1597835;72;1933;-57
2022/11/14 00:13:22;;;;;;;;;;;21.40;61.00;;;;;;1603174;72;711;-58
2022/11/14 00:15:24;;;;;;;;;;;21.30;61.00;;;;;;1599794;72;668;-59
2022/11/14 00:17:26;;;;;;;;;;;21.40;61.00;;;;;;1611349;72;1137;-58
2022/11/14 00:19:28;;;;;;;;;;;21.40;61.10;;;;;;1594161;72;671;-57
2022/11/14 00:21:30;;;;;;;;;;;21.40;61.00;;;;;;1596294;72;672;-58
2022/11/14 00:23:32;;;;;;;;;;;21.30;61.10;;;;;;1607538;72;676;-57
2022/11/14 00:25:34;;;;;;;;;;;21.30;61.00;;;;;;1608816;72;1779;-57
2022/11/14 00:27:35;;;;;;;;;;;21.40;61.00;;;;;;1609621;72;1205;-57
2022/11/14 00:29:37;;;;;;;;;;;21.40;61.00;;;;;;1594890;72;655;-59
2022/11/14 00:31:39;;;;;;;;;;;21.30;61.00;;;;;;1593131;72;1938;-57
2022/11/14 00:33:41;;;;;;;;;;;21.30;61.10;;;;;;1601981;72;622;-59
2022/11/14 00:35:45;;;;;;;;;;;21.30;61.00;;;;;;1593860;72;627;-58
2022/11/14 00:37:46;;;;;;;;;;;21.40;61.10;;;;;;1611456;72;1063;-59
2022/11/14 00:39:48;;;;;;;;;;;21.30;61.00;;;;;;1602679;72;1453;-57
2022/11/14 00:41:50;;;;;;;;;;;21.30;61.00;;;;;;1603268;72;669;-57
2022/11/14 00:43:52;;;;;;;;;;;21.30;61.10;;;;;;1597924;72;566;-57
2022/11/14 00:45:54;;;;;;;;;;;21.40;61.10;;;;;;1590071;72;734;-59
2022/11/14 00:47:56;;;;;;;;;;;21.40;61.00;;;;;;1609723;72;1121;-58
2022/11/14 00:49:58;;;;;;;;;;;21.30;61.00;;;;;;1600355;72;1917;-58
2022/11/14 00:51:59;;;;;;;;;;;21.40;61.00;;;;;;1613239;72;710;-58
2022/11/14 00:54:01;;;;;;;;;;;21.40;61.00;;;;;;1608301;72;1477;-58
2022/11/14 00:56:03;;;;;;;;;;;21.40;61.10;;;;;;1605339;72;645;-58
2022/11/14 00:58:05;;;;;;;;;;;21.30;61.20;;;;;;1596386;72;1139;-58
2022/11/14 01:00:07;;;;;;;;;;;21.30;61.20;;;;;;1605749;70;228426;-68
2022/11/14 01:02:09;;;;;;;;;;;21.30;61.20;;;;;;1635591;71;688;-68
2022/11/14 01:04:11;;;;;;;;;;;21.40;61.20;;;;;;1633434;71;734;-69
2022/11/14 01:06:14;;;;;;;;;;;21.40;61.20;;;;;;1643873;71;753;-69
2022/11/14 01:08:17;;;;;;;;;;;21.40;61.10;;;;;;1633968;71;1531;-69
2022/11/14 01:10:19;;;;;;;;;;;21.40;61.00;;;;;;1631537;71;1949;-69
2022/11/14 01:12:21;;;;;;;;;;;21.40;61.00;;;;;;1627871;71;717;-69
2022/11/14 01:14:23;;;;;;;;;;;21.40;61.00;;;;;;1593788;73;690;-70
2022/11/14 01:16:25;;;;;;;;;;;21.40;60.90;;;;;;1620262;71;672;-69
2022/11/14 01:18:27;;;;;;;;;;;21.50;61.00;;;;;;1620462;71;687;-69
2022/11/14 01:20:29;;;;;;;;;;;21.40;60.80;;;;;;1623308;71;1144;-70
2022/11/14 01:22:31;;;;;;;;;;;21.50;60.90;;;;;;1629595;71;1542;-70
2022/11/14 01:24:33;;;;;;;;;;;21.50;60.80;;;;;;1615277;71;689;-69
2022/11/14 01:26:35;;;;;;;;;;;21.40;60.90;;;;;;1630294;71;678;-69
2022/11/14 01:28:36;;;;;;;;;;;21.50;60.90;;;;;;1624863;71;657;-69
2022/11/14 01:30:38;;;;;;;;;;;21.40;60.80;;;;;;1623898;71;1941;-67
2022/11/14 01:32:40;;;;;;;;;;;21.50;61.20;;;;;;1628403;71;652;-68
2022/11/14 01:34:42;;;;;;;;;;;21.40;61.30;;;;;;1618808;73;677;-67
2022/11/14 01:36:44;;;;;;;;;;;21.40;61.30;;;;;;1623165;71;1606;-69
2022/11/14 01:38:46;;;;;;;;;;;21.50;61.40;;;;;;1611264;71;664;-68
2022/11/14 01:40:48;;;;;;;;;;;21.40;61.40;;;;;;1626571;71;1118;-71
2022/11/14 01:43:08;;;;;;;;;;;21.40;61.30;;;;;;1606895;71;670;-67
2022/11/14 01:45:28;;;;;;;;;;;21.40;61.40;;;;;;1609997;72;751;-69
2022/11/14 01:47:30;;;;;;;;;;;21.30;61.30;;;;;;1626058;71;718;-69
2022/11/14 01:49:40;;;;;;;;;;;21.40;61.20;;;;;;1608113;71;655;-68
2022/11/14 01:51:43;;;;;;;;;;;21.40;61.20;;;;;;1620957;72;1947;-67
2022/11/14 01:53:45;;;;;;;;;;;21.40;61.20;;;;;;1614483;71;1805;-67
2022/11/14 01:55:47;;;;;;;;;;;21.40;61.20;;;;;;1623073;71;809;-67
2022/11/14 01:57:49;;;;;;;;;;;21.40;61.20;;;;;;1614271;71;729;-67
2022/11/14 01:59:52;;;;;;;;;;;21.40;61.10;;;;;;1626390;71;1238;-68
2022/11/14 02:01:54;;;;;;;;;;;21.40;61.00;;;;;;1625410;71;955;-67
2022/11/14 02:03:55;;;;;;;;;;;21.50;60.90;;;;;;1626085;71;1563;-68
2022/11/14 02:05:57;;;;;;;;;;;21.50;60.70;;;;;;1626753;72;792;-67
2022/11/14 02:07:59;;;;;;;;;;;21.60;60.50;;;;;;1624372;71;643;-68
2022/11/14 02:10:01;;;;;;;;;;;21.50;60.50;;;;;;1625401;71;1136;-68
2022/11/14 02:12:05;;;;;;;;;;;21.50;60.40;;;;;;1628012;71;1932;-68
2022/11/14 02:14:07;;;;;;;;;;;21.50;60.40;;;;;;1627023;72;708;-65
2022/11/14 02:16:08;;;;;;;;;;;21.60;60.40;;;;;;1622842;71;759;-68
2022/11/14 02:18:11;;;;;;;;;;;21.60;60.30;;;;;;1618007;71;1562;-68
2022/11/14 02:20:14;;;;;;;;;;;21.60;60.40;;;;;;1626754;71;1126;-67
2022/11/14 02:22:16;;;;;;;;;;;21.50;60.40;;;;;;1621768;71;685;-69
2022/11/14 02:24:18;;;;;;;;;;;21.50;60.50;;;;;;1613831;72;724;-67
2022/11/14 02:26:20;;;;;;;;;;;21.50;60.60;;;;;;1616461;73;711;-68
2022/11/14 02:28:22;;;;;;;;;;;21.40;60.50;;;;;;1621444;71;727;-68
2022/11/14 02:30:24;;;;;;;;;;;21.40;60.50;;;;;;1610424;73;1162;-68
2022/11/14 02:32:26;;;;;;;;;;;21.40;60.60;;;;;;1626658;71;1975;-67
2022/11/14 02:34:28;;;;;;;;;;;21.50;60.70;;;;;;1575057;73;648;-68
2022/11/14 02:36:29;;;;;;;;;;;21.40;60.70;;;;;;1559713;74;683;-68
2022/11/14 02:38:31;;;;;;;;;;;21.40;60.80;;;;;;1626305;71;767;-69
2022/11/14 02:40:33;;;;;;;;;;;21.40;60.80;;;;;;1625798;71;1105;-67
2022/11/14 02:42:35;;;;;;;;;;;21.40;60.90;;;;;;1623696;71;651;-68
2022/11/14 02:44:37;;;;;;;;;;;21.30;60.90;;;;;;1620016;72;770;-68
2022/11/14 02:46:39;;;;;;;;;;;21.30;60.90;;;;;;1637839;71;1612;-68
2022/11/14 02:48:41;;;;;;;;;;;21.30;61.00;;;;;;1611671;72;855;-68
2022/11/14 02:50:43;;;;;;;;;;;21.40;61.10;;;;;;1615499;71;1946;-69
2022/11/14 02:52:44;;;;;;;;;;;21.30;61.20;;;;;;1624252;71;695;-68
2022/11/14 02:54:46;;;;;;;;;;;21.30;61.10;;;;;;1626275;71;723;-68
2022/11/14 02:56:48;;;;;;;;;;;21.30;61.20;;;;;;1617955;71;671;-68
2022/11/14 02:58:50;;;;;;;;;;;21.30;61.20;;;;;;1625543;73;678;-68
2022/11/14 03:00:52;;;;;;;;;;;21.30;61.10;;;;;;1627794;71;1547;-68
2022/11/14 03:02:54;;;;;;;;;;;21.30;61.20;;;;;;1621101;71;659;-68
2022/11/14 03:04:56;;;;;;;;;;;21.30;61.10;;;;;;1613710;71;667;-66
2022/11/14 03:06:58;;;;;;;;;;;21.30;61.20;;;;;;1619160;71;692;-68
2022/11/14 03:08:59;;;;;;;;;;;21.30;61.20;;;;;;1619917;72;675;-67
2022/11/14 03:11:06;;;;;;;;;;;21.30;61.20;;;;;;1628336;71;1941;-67
2022/11/14 03:13:08;;;;;;;;;;;21.30;61.10;;;;;;1619113;73;1480;-67
2022/11/14 03:15:10;;;;;;;;;;;21.30;61.10;;;;;;1616331;71;1552;-67
2022/11/14 03:17:12;;;;;;;;;;;21.40;61.10;;;;;;1628580;71;670;-68
2022/11/14 03:19:14;;;;;;;;;;;21.30;61.10;;;;;;1614886;71;767;-68
2022/11/14 03:21:17;;;;;;;;;;;21.30;61.10;;;;;;1623276;72;1151;-68
2022/11/14 03:23:18;;;;;;;;;;;21.30;61.10;;;;;;1615615;71;637;-69
2022/11/14 03:25:20;;;;;;;;;;;21.30;61.20;;;;;;1624260;71;561;-68
2022/11/14 03:27:22;;;;;;;;;;;21.30;61.20;;;;;;1627532;71;651;-68
2022/11/14 03:29:24;;;;;;;;;;;21.30;61.20;;;;;;1620549;71;1552;-68
2022/11/14 03:31:26;;;;;;;;;;;21.30;61.30;;;;;;1614597;71;1945;-68
2022/11/14 03:33:28;;;;;;;;;;;21.30;61.40;;;;;;1617045;72;730;-70
2022/11/14 03:35:30;;;;;;;;;;;21.30;61.50;;;;;;1608285;72;826;-69
2022/11/14 03:37:32;;;;;;;;;;;21.30;61.40;;;;;;1620574;73;685;-68
2022/11/14 03:39:33;;;;;;;;;;;21.30;61.50;;;;;;1623025;71;723;-69
2022/11/14 03:41:35;;;;;;;;;;;21.40;61.50;;;;;;1614417;73;1089;-70
2022/11/14 03:43:37;;;;;;;;;;;21.40;61.50;;;;;;1625639;71;1578;-68
2022/11/14 03:45:39;;;;;;;;;;;21.30;61.50;;;;;;1625642;71;712;-69
2022/11/14 03:47:41;;;;;;;;;;;21.30;61.50;;;;;;1625018;71;672;-69
2022/11/14 03:49:43;;;;;;;;;;;21.40;61.40;;;;;;1622809;71;675;-70
2022/11/14 03:51:45;;;;;;;;;;;21.40;61.50;;;;;;1624449;72;1910;-69
2022/11/14 03:53:47;;;;;;;;;;;21.40;61.60;;;;;;1626765;71;665;-70
2022/11/14 03:55:49;;;;;;;;;;;21.50;61.70;;;;;;1619396;71;674;-68
2022/11/14 03:57:51;;;;;;;;;;;21.50;61.80;;;;;;1624574;71;1564;-68
2022/11/14 03:59:53;;;;;;;;;;;21.50;61.70;;;;;;1623999;71;1148;-68
2022/11/14 04:01:55;;;;;;;;;;;21.50;61.60;;;;;;1623446;71;781;-69
2022/11/14 04:03:57;;;;;;;;;;;21.60;61.50;;;;;;1625914;71;754;-69
2022/11/14 04:05:59;;;;;;;;;;;21.60;61.60;;;;;;1610452;71;831;-69
2022/11/14 04:08:01;;;;;;;;;;;21.60;61.60;;;;;;1624573;71;751;-67
2022/11/14 04:10:02;;;;;;;;;;;21.70;61.50;;;;;;1595549;73;1147;-71
2022/11/14 04:12:04;;;;;;;;;;;21.60;61.40;;;;;;1626967;71;1935;-69
2022/11/14 04:14:06;;;;;;;;;;;21.60;61.40;;;;;;1619870;71;1880;-68
2022/11/14 04:16:08;;;;;;;;;;;21.70;61.40;;;;;;1614044;72;880;-69
2022/11/14 04:18:10;;;;;;;;;;;21.60;61.30;;;;;;1621076;71;702;-66
2022/11/14 04:20:12;;;;;;;;;;;21.70;61.30;;;;;;1624532;71;1166;-68
2022/11/14 04:22:14;;;;;;;;;;;21.80;61.30;;;;;;1619134;72;671;-69
2022/11/14 04:24:16;;;;;;;;;;;21.70;61.50;;;;;;1629443;71;1584;-70
2022/11/14 04:26:18;;;;;;;;;;;21.70;61.40;;;;;;1624108;71;615;-70
2022/11/14 04:28:20;;;;;;;;;;;21.70;61.30;;;;;;1624728;71;657;-70
2022/11/14 04:30:22;;;;;;;;;;;21.80;61.30;;;;;;1627040;72;1145;-69
2022/11/14 04:32:24;;;;;;;;;;;21.80;61.20;;;;;;1610701;72;1945;-68
2022/11/14 04:34:26;;;;;;;;;;;21.70;61.10;;;;;;1625379;71;742;-69
2022/11/14 04:36:27;;;;;;;;;;;21.80;61.10;;;;;;1614742;71;787;-68
2022/11/14 04:38:29;;;;;;;;;;;21.80;61.00;;;;;;1622919;72;1334;-69
2022/11/14 04:40:31;;;;;;;;;;;21.80;61.00;;;;;;1627326;71;1128;-69
2022/11/14 04:42:33;;;;;;;;;;;21.70;61.00;;;;;;1627760;71;783;-69
2022/11/14 04:44:35;;;;;;;;;;;21.80;61.00;;;;;;1611855;72;665;-68
2022/11/14 04:46:37;;;;;;;;;;;21.80;61.10;;;;;;1626454;71;690;-68
2022/11/14 04:48:39;;;;;;;;;;;21.80;61.00;;;;;;1627267;72;690;-66
2022/11/14 04:50:40;;;;;;;;;;;21.80;61.00;;;;;;1628025;71;1130;-67
2022/11/14 04:52:42;;;;;;;;;;;21.80;61.00;;;;;;1623511;71;1931;-68
2022/11/14 04:54:44;;;;;;;;;;;21.80;61.10;;;;;;1623006;71;653;-68
2022/11/14 04:56:46;;;;;;;;;;;21.80;61.10;;;;;;1618652;71;694;-69
2022/11/14 04:58:48;;;;;;;;;;;21.90;61.20;;;;;;1626058;71;755;-67
2022/11/14 05:00:50;;;;;;;;;;;21.80;61.00;;;;;;1626644;71;1139;-67
2022/11/14 05:02:52;;;;;;;;;;;21.80;61.00;;;;;;1626254;71;788;-67
2022/11/14 05:04:54;;;;;;;;;;;21.90;61.00;;;;;;1617415;71;708;-67
2022/11/14 05:06:56;;;;;;;;;;;21.90;61.00;;;;;;1623970;71;1538;-67
2022/11/14 05:08:58;;;;;;;;;;;21.80;60.80;;;;;;1624469;73;738;-67
2022/11/14 05:11:00;;;;;;;;;;;21.80;60.80;;;;;;1621391;71;1177;-68
2022/11/14 05:13:01;;;;;;;;;;;21.80;61.10;;;;;;1619105;71;1935;-69
2022/11/14 05:15:03;;;;;;;;;;;21.90;61.20;;;;;;1620561;71;763;-69
2022/11/14 05:17:05;;;;;;;;;;;21.90;61.20;;;;;;1618178;71;694;-71
2022/11/14 05:19:07;;;;;;;;;;;21.90;61.10;;;;;;1614118;72;752;-69
2022/11/14 05:21:15;;;;;;;;;;;21.90;61.00;;;;;;1622043;71;1571;-69
2022/11/14 05:23:20;;;;;;;;;;;21.90;61.00;;;;;;1620163;71;781;-68
2022/11/14 05:25:22;;;;;;;;;;;21.90;61.00;;;;;;1627939;71;817;-68
2022/11/14 05:27:24;;;;;;;;;;;21.90;61.00;;;;;;1624003;73;713;-69
2022/11/14 05:29:26;;;;;;;;;;;21.90;60.90;;;;;;1614897;72;769;-69
2022/11/14 05:31:28;;;;;;;;;;;21.90;60.90;;;;;;1612599;71;1090;-68
2022/11/14 05:33:30;;;;;;;;;;;21.90;60.80;;;;;;1618632;71;1949;-69
2022/11/14 05:35:32;;;;;;;;;;;21.90;60.80;;;;;;1627660;71;1605;-67
2022/11/14 05:37:34;;;;;;;;;;;21.90;60.80;;;;;;1625862;72;688;-68
2022/11/14 05:39:36;;;;;;;;;;;22.00;60.80;;;;;;1616872;72;721;-69
2022/11/14 05:41:37;;;;;;;;;;;22.00;61.20;;;;;;1628598;71;1137;-69
2022/11/14 05:43:39;;;;;;;;;;;22.00;61.00;;;;;;1628182;71;685;-68
2022/11/14 05:45:41;;;;;;;;;;;21.90;60.70;;;;;;1627336;73;643;-68
2022/11/14 05:47:43;;;;;;;;;;;21.90;60.50;;;;;;1627915;71;857;-68
2022/11/14 05:49:45;;;;;;;;;;;22.00;60.30;;;;;;1624457;71;1594;-67
2022/11/14 05:51:47;;;;;;;;;;;22.00;60.50;;;;;;1628468;71;1944;-65
2022/11/14 05:53:49;;;;;;;;;;;21.90;60.70;;;;;;1627657;71;682;-68
2022/11/14 05:55:51;;;;;;;;;;;21.90;60.70;;;;;;1630073;71;769;-69
2022/11/14 05:57:53;;;;;;;;;;;22.00;60.80;;;;;;1627546;71;744;-69
2022/11/14 05:59:56;;;;;;;;;;;22.00;60.90;;;;;;1623556;71;1125;-69
2022/11/14 06:01:58;;;;;;;;;;;22.00;60.90;;;;;;1627174;73;705;-68
2022/11/14 06:04:00;;;;;;;;;;;22.00;60.90;;;;;;1622970;71;1545;-69
2022/11/14 06:06:02;;;;;;;;;;;22.00;61.10;;;;;;1621642;72;761;-69
2022/11/14 06:08:04;;;;;;;;;;;22.00;61.10;;;;;;1625715;72;753;-69
2022/11/14 06:10:06;;;;;;;;;;;22.00;61.00;;;;;;1626540;71;1172;-70
2022/11/14 06:12:08;;;;;;;;;;;22.10;61.00;;;;;;1627636;73;1935;-69
2022/11/14 06:14:10;;;;;;;;;;;22.00;60.90;;;;;;1621703;71;731;-68
2022/11/14 06:16:13;;;;;;;;;;;22.00;61.00;;;;;;1628850;71;702;-63
2022/11/14 06:18:14;;;;;;;;;;;22.00;60.70;;;;;;1621156;71;1561;-64
2022/11/14 06:20:16;;;;;;;;;;;22.10;60.40;;;;;;1621606;71;1136;-64
2022/11/14 06:22:18;;;;;;;;;;;22.10;60.20;;;;;;1618161;71;674;-63
2022/11/14 06:24:20;;;;;;;;;;;22.10;60.00;;;;;;1619126;71;736;-63
2022/11/14 06:26:23;;;;;;;;;;;22.10;59.90;;;;;;1625313;71;759;-64
2022/11/14 06:28:25;;;;;;;;;;;22.00;59.70;;;;;;1621625;73;768;-64
2022/11/14 06:30:26;;;;;;;;;;;22.00;59.60;;;;;;1623824;71;1130;-63
2022/11/14 06:32:28;;;;;;;;;;;22.00;59.60;;;;;;1623497;71;1940;-63
2022/11/14 06:34:30;;;;;;;;;;;22.00;59.50;;;;;;1627570;71;688;-63
2022/11/14 06:36:32;;;;;;;;;;;22.00;59.40;;;;;;1624368;73;727;-63
2022/11/14 06:38:35;;;;;;;;;;;22.00;59.40;;;;;;1623833;73;774;-66
2022/11/14 06:40:37;;;;;;;;;;;22.00;59.40;;;;;;1619039;71;1187;-64
2022/11/14 06:42:38;;;;;;;;;;;22.00;59.40;;;;;;1627418;71;639;-64
2022/11/14 06:44:40;;;;;;;;;;;22.00;59.30;;;;;;1628499;71;708;-65
2022/11/14 06:46:42;;;;;;;;;;;22.00;59.30;;;;;;1626712;72;1586;-63
2022/11/14 06:48:44;;;;;;;;;;;22.00;59.30;;;;;;1624851;71;682;-63
2022/11/14 06:50:52;;;;;;;;;;;22.00;59.30;;;;;;1626027;71;1157;-66
2022/11/14 06:52:57;;;;;;;;;;;22.00;59.30;;;;;;1622223;73;1935;-66
2022/11/14 06:54:58;;;;;;;;;;;22.00;59.30;;;;;;1614077;71;783;-66
2022/11/14 06:57:00;;;;;;;;;;;22.00;59.10;;;;;;1625102;71;754;-69
2022/11/14 06:59:02;;;;;;;;;;;21.90;59.00;;;;;;1627477;71;1580;-66
2022/11/14 07:01:04;;;;;;;;;;;22.00;59.00;;;;;;1625923;70;2076;-64
2022/11/14 07:03:06;;;;;;;;;;;22.00;58.90;;;;;;1624300;71;687;-64
2022/11/14 07:05:08;;;;;;;;;;;22.00;58.80;;;;;;1633569;71;625;-64
2022/11/14 07:07:10;;;;;;;;;;;21.90;58.70;;;;;;1631736;72;711;-65
2022/11/14 07:09:12;;;;;;;;;;;21.90;58.60;;;;;;1631211;71;667;-65
2022/11/14 07:11:25;;;;;;;;;;;22.00;59.10;;;;;;1630372;71;1193;-65
2022/11/14 07:13:18;;;;;;;;;;;22.00;56.70;;;;;;1622725;71;1929;-65
2022/11/14 07:15:21;;;;;;;;;;;22.00;56.80;;;;;;1616191;73;713;-65
2022/11/14 07:17:23;;;;;;;;;;;22.20;57.40;;;;;;1626556;71;1025;-65
2022/11/14 07:19:24;;;;;;;;;;;22.20;56.80;;;;;;1622229;71;676;-66
2022/11/14 07:21:27;;;;;;;;;;;22.10;56.00;;;;;;1622136;73;1165;-64
2022/11/14 07:23:29;;;;;;;;;;;22.10;55.50;;;;;;1626743;72;686;-65
2022/11/14 07:25:31;;;;;;;;;;;22.10;55.50;;;;;;1626289;71;628;-64
2022/11/14 07:27:33;;;;;;;;;;;22.00;55.00;;;;;;1628979;71;1518;-64
2022/11/14 07:29:35;;;;;;;;;;;22.00;54.60;;;;;;1618371;73;683;-65
2022/11/14 07:31:37;;;;;;;;;;;21.80;54.10;;;;;;1628643;71;1142;-64
2022/11/14 07:33:39;;;;;;;;;;;21.80;53.90;;;;;;1628319;71;1929;-65
2022/11/14 07:35:40;;;;;;;;;;;21.80;53.60;;;;;;1628399;73;587;-65
2022/11/14 07:37:42;;;;;;;;;;;21.70;53.40;;;;;;1627489;71;662;-65
2022/11/14 07:39:45;;;;;;;;;;;21.70;53.00;;;;;;1628734;71;739;-65
2022/11/14 07:41:46;;;;;;;;;;;21.60;52.80;;;;;;1624824;72;1480;-65
2022/11/14 07:43:48;;;;;;;;;;;21.60;52.60;;;;;;1619153;72;705;-65
2022/11/14 07:45:50;;;;;;;;;;;21.60;52.50;;;;;;1628604;71;688;-65
2022/11/14 07:47:54;;;;;;;;;;;21.60;52.10;;;;;;1627296;71;715;-66
2022/11/14 07:49:55;;;;;;;;;;;21.50;52.00;;;;;;1643439;71;949;-65
2022/11/14 07:51:57;;;;;;;;;;;21.50;51.70;;;;;;1627224;73;1105;-64
2022/11/14 07:53:59;;;;;;;;;;;21.40;51.50;;;;;;1615725;72;1949;-65
2022/11/14 07:56:01;;;;;;;;;;;21.40;51.50;;;;;;1620059;73;1510;-65
2022/11/14 07:58:03;;;;;;;;;;;21.40;51.20;;;;;;1627708;73;667;-64
2022/11/14 08:00:06;;;;;;;;;;;21.40;51.20;;;;;;1621744;73;691;-64
2022/11/14 08:02:09;;;;;;;;;;;21.40;51.00;;;;;;1625692;71;1143;-66
2022/11/14 08:04:11;;;;;;;;;;;21.40;50.80;;;;;;1624144;73;1553;-64
2022/11/14 08:06:13;;;;;;;;;;;21.30;50.80;;;;;;1627887;73;642;-66
2022/11/14 08:08:15;;;;;;;;;;;21.40;50.80;;;;;;1628328;73;698;-65
2022/11/14 08:10:17;;;;;;;;;;;21.30;50.60;;;;;;1628271;72;1500;-64
2022/11/14 08:12:19;;;;;;;;;;;21.40;50.50;;;;;;1623320;71;573;-66
2022/11/14 08:14:21;;;;;;;;;;;21.30;50.50;;;;;;1627995;71;1929;-66
2022/11/14 08:16:23;;;;;;;;;;;21.30;50.40;;;;;;1621080;72;579;-66
2022/11/14 08:18:25;;;;;;;;;;;21.30;50.20;;;;;;1622090;71;636;-65
2022/11/14 08:20:27;;;;;;;;;;;21.30;50.20;;;;;;1619798;71;1150;-65
2022/11/14 08:22:29;;;;;;;;;;;21.30;50.10;;;;;;1627519;71;613;-66
2022/11/14 08:24:31;;;;;;;;;;;21.20;49.80;;;;;;1627697;73;1297;-66
2022/11/14 08:26:33;;;;;;;;;;;21.20;49.70;;;;;;1626338;71;746;-65
2022/11/14 08:28:35;;;;;;;;;;;21.20;49.60;;;;;;1626761;73;677;-65
2022/11/14 08:30:37;;;;;;;;;;;21.20;49.40;;;;;;1623233;72;1173;-65
2022/11/14 08:32:39;;;;;;;;;;;21.20;49.40;;;;;;1626115;73;626;-65
2022/11/14 08:34:41;;;;;;;;;;;21.10;49.10;;;;;;1621651;71;1929;-65
2022/11/14 08:36:43;;;;;;;;;;;21.10;49.00;;;;;;1626326;71;741;-65
2022/11/14 08:38:44;;;;;;;;;;;21.10;49.00;;;;;;1625656;73;1464;-65
2022/11/14 08:40:46;;;;;;;;;;;21.00;48.80;;;;;;1627554;72;1129;-65
2022/11/14 08:42:48;;;;;;;;;;;21.00;48.70;;;;;;1627151;71;684;-64
2022/11/14 08:44:50;;;;;;;;;;;21.00;48.60;;;;;;1624732;71;756;-66
2022/11/14 08:46:52;;;;;;;;;;;21.00;48.60;;;;;;1628123;71;573;-66
2022/11/14 08:48:54;;;;;;;;;;;21.00;48.40;;;;;;1617803;71;579;-64
2022/11/14 08:50:56;;;;;;;;;;;21.00;48.40;;;;;;1615997;71;1148;-65
2022/11/14 08:52:57;;;;;;;;;;;21.00;48.30;;;;;;1633403;71;1949;-66
2022/11/14 08:54:59;;;;;;;;;;;21.00;48.20;;;;;;1628018;71;671;-66
2022/11/14 08:57:01;;;;;;;;;;;21.00;48.10;;;;;;1627916;72;603;-65
2022/11/14 08:59:03;;;;;;;;;;;20.90;48.10;;;;;;1624387;71;608;-66
2022/11/14 09:01:06;;;;;;;;;;;20.90;48.10;;;;;;1614683;72;1161;-66
2022/11/14 09:03:08;;;;;;;;;;;20.90;48.10;;;;;;1624280;72;749;-66
2022/11/14 09:05:10;;;;;;;;;;;20.90;48.10;;;;;;1614077;73;633;-65
2022/11/14 09:07:12;;;;;;;;;;;20.90;48.00;;;;;;1612611;71;1477;-63
2022/11/14 09:09:14;;;;;;;;;;;20.90;48.10;;;;;;1620560;71;653;-66
2022/11/14 09:11:16;;;;;;;;;;;20.90;47.90;;;;;;1620907;73;1092;-66
2022/11/14 09:13:18;;;;;;;;;;;20.90;47.90;;;;;;1626579;71;1928;-65
2022/11/14 09:15:20;;;;;;;;;;;21.00;47.90;;;;;;1610096;71;726;-64
2022/11/14 09:17:22;;;;;;;;;;;21.00;48.10;;;;;;1619964;73;669;-65
2022/11/14 09:19:24;;;;;;;;;;;21.00;48.10;;;;;;1618504;71;649;-65
2022/11/14 09:21:26;;;;;;;;;;;21.10;48.20;;;;;;1625981;72;1561;-65
2022/11/14 09:23:28;;;;;;;;;;;21.00;48.10;;;;;;1626266;71;704;-65
2022/11/14 09:25:29;;;;;;;;;;;21.00;47.60;;;;;;1610978;71;579;-65
2022/11/14 09:27:31;;;;;;;;;;;21.10;49.10;;;;;;1626441;71;729;-66
2022/11/14 09:29:33;;;;;;;;;;;21.10;49.90;;;;;;1625788;73;650;-66
2022/11/14 09:31:35;;;;;;;;;;;21.00;50.50;;;;;;1625328;72;1112;-67
2022/11/14 09:33:37;;;;;;;;;;;21.00;51.00;;;;;;1624974;71;1921;-66
2022/11/14 09:35:40;;;;;;;;;;;21.10;51.60;;;;;;1627280;71;685;-66
2022/11/14 09:37:42;;;;;;;;;;;21.10;51.90;;;;;;1626813;71;663;-66
2022/11/14 09:39:43;;;;;;;;;;;21.10;52.10;;;;;;1622827;72;711;-66
2022/11/14 09:42:02;;;;;;;;;;;21.20;52.30;;;;;;1628019;72;1165;-67
2022/11/14 09:44:12;;;;;;;;;;;21.10;52.40;;;;;;1626027;71;1149;-66
2022/11/14 09:46:21;;;;;;;;;;;21.20;52.60;;;;;;1624675;72;1426;-66
2022/11/14 09:48:26;;;;;;;;;;;21.20;52.60;;;;;;1622699;71;1330;-67
2022/11/14 09:50:32;;;;;;;;;;;21.20;52.60;;;;;;1623995;72;1718;-66
2022/11/14 09:52:37;;;;;;;;;;;21.30;52.80;;;;;;1624433;71;685;-67
2022/11/14 09:54:41;;;;;;;;;;;21.30;52.90;;;;;;1627172;72;1923;-65
2022/11/14 09:56:43;;;;;;;;;;;21.30;52.90;;;;;;1614941;71;1014;-66
2022/11/14 09:58:44;;;;;;;;;;;21.30;53.10;;;;;;1625774;71;660;-66
2022/11/14 10:01:00;;;;;;;;;;;21.30;53.10;;;;;;1627581;71;1150;-66
2022/11/14 10:03:16;;;;;;;;;;;21.40;53.10;;;;;;1627393;72;1503;-64
2022/11/14 10:05:36;;;;;;;;;;;21.40;53.10;;;;;;1621549;71;664;-65
2022/11/14 10:07:45;;;;;;;;;;;21.40;53.20;;;;;;1627577;73;610;-65
2022/11/14 10:09:58;;;;;;;;;;;21.40;53.30;;;;;;1624095;72;2008;-66
2022/11/14 10:12:11;;;;;;;;;;;21.40;53.30;;;;;;1627008;73;1146;-66
2022/11/14 10:14:17;;;;;;;;;;;21.40;53.30;;;;;;1623729;71;1900;-66
2022/11/14 10:16:19;;;;;;;;;;;21.50;53.40;;;;;;1622431;72;1528;-66
2022/11/14 10:18:32;;;;;;;;;;;21.50;53.50;;;;;;1616560;71;642;-67
2022/11/14 10:20:52;;;;;;;;;;;21.50;53.50;;;;;;1623594;71;1527;-67
2022/11/14 10:23:12;;;;;;;;;;;21.50;53.60;;;;;;1625105;71;669;-69
2022/11/14 10:25:18;;;;;;;;;;;21.50;53.30;;;;;;1620142;71;704;-65
2022/11/14 10:27:22;;;;;;;;;;;21.50;53.30;;;;;;1622235;71;765;-67
2022/11/14 10:29:31;;;;;;;;;;;21.50;53.30;;;;;;1621205;71;1593;-66
2022/11/14 10:31:38;;;;;;;;;;;21.50;53.30;;;;;;1622678;73;1899;-66
2022/11/14 10:33:53;;;;;;;;;;;21.60;53.20;;;;;;1624869;71;1959;-65
2022/11/14 10:36:03;;;;;;;;;;;21.60;53.40;;;;;;1621803;71;677;-66
2022/11/14 10:38:12;;;;;;;;;;;21.50;53.30;;;;;;1625324;71;1845;-66
2022/11/14 10:40:22;;;;;;;;;;;21.50;53.20;;;;;;1628092;71;612;-66
2022/11/14 10:42:36;;;;;;;;;;;21.60;53.30;;;;;;1622617;73;713;-65
2022/11/14 10:44:40;;;;;;;;;;;21.60;53.30;;;;;;1628023;72;1475;-66
2022/11/14 10:46:43;;;;;;;;;;;21.60;53.20;;;;;;1628553;71;1525;-67
2022/11/14 10:48:48;;;;;;;;;;;21.60;53.20;;;;;;1638623;71;1158;-67
2022/11/14 10:51:00;;;;;;;;;;;21.60;53.20;;;;;;1626333;71;1130;-67
2022/11/14 10:53:03;;;;;;;;;;;21.60;53.10;;;;;;1614103;71;690;-66
2022/11/14 10:55:06;;;;;;;;;;;21.60;53.10;;;;;;1624801;71;1897;-66
2022/11/14 10:57:16;;;;;;;;;;;21.70;53.10;;;;;;1623974;71;1024;-65
2022/11/14 10:59:18;;;;;;;;;;;21.70;53.00;;;;;;1627277;71;1488;-65
2022/11/14 11:01:39;;;;;;;;;;;21.80;52.80;;;;;;1624506;71;1176;-65
2022/11/14 11:03:41;;;;;;;;;;;21.70;52.80;;;;;;1618066;71;795;-65
2022/11/14 11:05:50;;;;;;;;;;;21.80;52.60;;;;;;1613891;71;669;-65
2022/11/14 11:12:46;;;;;;;;;;;22.00;52.10;;;;;;1616554;72;1502;-66
2022/11/14 11:14:48;;;;;;;;;;;22.00;52.00;;;;;;1626667;71;1956;-66
2022/11/14 11:16:52;;;;;;;;;;;22.00;51.90;;;;;;1619048;73;727;-66
2022/11/14 11:18:53;;;;;;;;;;;22.00;51.80;;;;;;1623787;71;1071;-66
2022/11/14 11:20:57;;;;;;;;;;;22.10;51.80;;;;;;1623364;71;1149;-66
2022/11/14 11:23:03;;;;;;;;;;;22.10;51.80;;;;;;1615275;71;991;-65
2022/11/14 11:25:06;;;;;;;;;;;22.10;51.80;;;;;;1630394;71;735;-66
2022/11/14 11:27:16;;;;;;;;;;;22.00;51.60;;;;;;1618563;71;1501;-67
2022/11/14 11:29:19;;;;;;;;;;;22.10;51.70;;;;;;1622429;73;1043;-70
2022/11/14 11:31:21;;;;;;;;;;;22.10;51.90;;;;;;1628324;71;1154;-69
2022/11/14 11:33:23;;;;;;;;;;;22.00;51.90;;;;;;1623359;71;663;-69
2022/11/14 11:35:25;;;;;;;;;;;22.00;52.10;;;;;;1619098;71;1921;-69
2022/11/14 11:37:28;;;;;;;;;;;22.10;52.20;;;;;;1621758;71;716;-70
2022/11/14 11:39:31;;;;;;;;;;;22.10;52.20;;;;;;1620345;71;686;-69
2022/11/14 11:41:33;;;;;;;;;;;22.00;52.00;;;;;;1627801;72;1465;-68
2022/11/14 11:43:39;;;;;;;;;;;22.10;52.10;;;;;;1627995;71;614;-67
2022/11/14 11:45:42;;;;;;;;;;;22.10;52.10;;;;;;1626356;71;678;-69
2022/11/14 11:47:51;;;;;;;;;;;22.10;52.00;;;;;;1626222;72;729;-66
2022/11/14 11:49:53;;;;;;;;;;;22.10;51.80;;;;;;1626432;71;1871;-68
2022/11/14 11:51:56;;;;;;;;;;;22.20;51.70;;;;;;1612190;71;1099;-66
2022/11/14 11:54:02;;;;;;;;;;;22.30;51.70;;;;;;1618916;73;1914;-65
2022/11/14 11:56:08;;;;;;;;;;;22.20;51.50;;;;;;1628240;71;1612;-68
2022/11/14 11:58:21;;;;;;;;;;;22.20;51.40;;;;;;1623206;71;717;-68
2022/11/14 12:00:22;;;;;;;;;;;22.30;51.30;;;;;;1623487;71;1481;-68
2022/11/14 12:02:25;;;;;;;;;;;22.40;51.20;;;;;;1623040;71;673;-67
2022/11/14 12:04:27;;;;;;;;;;;22.40;51.20;;;;;;1625460;71;805;-67
2022/11/14 12:06:29;;;;;;;;;;;22.40;51.10;;;;;;1620606;73;638;-67
2022/11/14 12:08:38;;;;;;;;;;;22.40;51.00;;;;;;1629734;71;1475;-71
2022/11/14 12:10:40;;;;;;;;;;;22.40;51.00;;;;;;1625755;71;1157;-68
2022/11/14 12:12:44;;;;;;;;;;;22.40;51.00;;;;;;1626895;71;664;-65
2022/11/14 12:14:53;;;;;;;;;;;22.40;50.90;;;;;;1624515;73;1925;-66
2022/11/14 12:17:13;;;;;;;;;;;22.40;51.00;;;;;;1627687;73;1981;-63
2022/11/14 12:19:17;;;;;;;;;;;22.40;50.90;;;;;;1624228;71;607;-65